Fort Shafter, Hawaii
Current Conditions -  °F | °C
As of 7:53 AM on Thursday 23 Oct 2014 (Local Time) from PHNL Reporting Station
Scattered Clouds Scattered Clouds  
Wind Chill: 79°   Ceiling: Unl
Heat Index: 82°   Visibility: 10mi
Dew Point: 73°   Wind: 3mph
Humidity: 82%   Direction: 50°NE
Pressure: 30.03"   Gusts: NA
Location:  21.35°N, 157.87°W
Report Text: PHNL 231753Z 05003KT 10SM FEW026 SCT032 SCT065 26/23 A3003 RMK AO2 SLP168 60000 T02610228 10261 20233 53016
Loading
Personal Weather Stations






























Interactive Weather Map
Tropical Storm Tracking
New forecast layout! Learn more

10-Day Weather Forecast

Advertisements
Track Severe Weather on mobile